Time;durP1;ratioP1;P1;durP2;ratioP2;P2;SDS_P1;SDS_P2;PMS_P1;PMS_P2;Temp;Humidity;BMP_temperature;BMP_pressure;BME280_temperature;BME280_humidity;BME280_pressure;Samples;Min_cycle;Max_cycle;Signal;HPM_P1;HPM_P2
2023/07/28 00:01:21;;;;;;;8.60;4.20;;;17.80;99.90;;;17.84;100.00;99501.53;4993059;28;20515;-87
2023/07/28 00:03:49;;;;;;;6.97;3.90;;;17.80;99.90;;;17.87;99.97;99500.97;4996576;28;20070;-87
2023/07/28 00:06:16;;;;;;;7.07;4.07;;;17.90;99.90;;;17.86;99.90;99497.47;5007527;28;20049;-87
2023/07/28 00:08:43;;;;;;;8.98;4.43;;;17.80;99.90;;;17.83;100.00;99497.22;5009202;28;20077;-87
2023/07/28 00:11:12;;;;;;;8.70;4.40;;;17.80;99.90;;;17.82;100.00;99501.03;4994931;28;20646;-87
2023/07/28 00:13:41;;;;;;;8.20;3.67;;;17.80;99.90;;;17.82;100.00;99504.53;4994729;28;20042;-87
2023/07/28 00:16:10;;;;;;;5.90;3.42;;;17.80;99.90;;;17.84;100.00;99505.03;4995030;28;20041;-87
2023/07/28 00:18:37;;;;;;;6.50;3.80;;;17.80;99.90;;;17.85;99.75;99503.94;4994453;28;20078;-87
2023/07/28 00:21:06;;;;;;;4.85;3.40;;;17.80;99.90;;;17.86;100.00;99493.94;4994715;28;20049;-87
2023/07/28 00:23:33;;;;;;;6.18;3.47;;;17.80;99.90;;;17.89;100.00;99501.50;4994134;28;20046;-87
2023/07/28 00:26:01;;;;;;;7.72;3.63;;;17.80;99.90;;;17.89;99.96;99504.19;4978610;28;20133;-87
2023/07/28 00:28:28;;;;;;;5.57;3.15;;;17.80;99.90;;;17.89;100.00;99504.19;4974706;28;20133;-87
2023/07/28 00:30:57;;;;;;;6.00;3.65;;;17.90;99.90;;;17.91;99.73;99500.13;4975196;28;20150;-87
2023/07/28 00:33:25;;;;;;;5.40;3.40;;;17.90;99.90;;;17.92;99.37;99493.66;4974933;28;20525;-87
2023/07/28 00:35:52;;;;;;;5.30;2.90;;;17.90;99.90;;;17.93;99.20;99491.75;5009407;28;20129;-88
2023/07/28 00:38:19;;;;;;;7.13;3.70;;;17.90;99.90;;;17.92;99.23;99493.66;4993847;28;20149;-87
2023/07/28 00:40:47;;;;;;;5.72;3.17;;;17.90;99.90;;;17.92;99.25;99496.34;4993965;28;20042;-87
2023/07/28 00:43:14;;;;;;;5.35;3.05;;;17.90;99.90;;;17.94;98.90;99482.56;5010496;28;20105;-87
2023/07/28 00:45:41;;;;;;;5.85;2.83;;;17.90;99.90;;;17.95;99.10;99495.75;4994147;28;20057;-87
2023/07/28 00:48:15;;;;;;;4.13;2.80;;;17.90;99.90;;;17.97;98.75;99493.59;4977527;28;20419;-87
2023/07/28 00:50:43;;;;;;;4.65;3.05;;;17.90;99.90;;;17.99;98.45;99494.09;4993849;28;20081;-87
2023/07/28 00:53:10;;;;;;;6.03;2.83;;;17.90;99.90;;;17.97;98.48;99482.81;5010647;28;20615;-87
2023/07/28 00:55:38;;;;;;;5.25;2.85;;;17.90;99.90;;;17.95;98.53;99481.47;4993982;28;20049;-87
2023/07/28 00:58:05;;;;;;;4.88;3.05;;;17.90;99.90;;;17.92;99.21;99487.44;4994058;28;20101;-87
2023/07/28 01:00:33;;;;;;;8.60;3.65;;;17.90;99.90;;;17.89;99.63;99496.91;5010401;28;20073;-87
2023/07/28 01:03:00;;;;;;;5.80;3.78;;;17.90;99.90;;;17.91;99.54;99491.22;4977734;28;20137;-87
2023/07/28 01:05:40;;;;;;;6.25;3.42;;;17.90;99.90;;;17.88;99.76;99500.69;4995020;28;20054;-87
2023/07/28 01:08:17;;;;;;;4.65;2.80;;;17.80;99.90;;;17.87;100.00;99493.69;4993574;28;20097;-87
2023/07/28 01:10:44;;;;;;;5.85;3.45;;;17.80;99.90;;;17.89;100.00;99491.50;4993339;28;20066;-87
2023/07/28 01:13:12;;;;;;;6.18;3.72;;;17.80;99.90;;;17.91;99.89;99489.34;4992362;28;20049;-87
2023/07/28 01:15:39;;;;;;;6.18;3.47;;;17.80;99.90;;;17.92;99.79;99490.16;4993589;28;20143;-87
2023/07/28 01:18:09;;;;;;;7.43;3.50;;;17.80;99.90;;;17.90;99.63;99487.72;4993802;28;20145;-87
2023/07/28 01:20:40;;;;;;;8.95;3.72;;;17.80;99.90;;;17.89;100.00;99488.81;4993574;28;20400;-87
2023/07/28 01:23:15;;;;;;;7.03;3.75;;;17.80;99.90;;;17.91;100.00;99499.31;4993465;28;20063;-87
2023/07/28 01:25:56;;;;;;;6.20;3.40;;;17.90;99.90;;;17.95;99.56;99487.66;4977590;28;20476;-87
2023/07/28 01:28:26;;;;;;;7.20;3.08;;;17.90;99.90;;;17.94;99.27;99496.06;4993529;28;20096;-87
2023/07/28 01:30:53;;;;;;;6.57;3.33;;;17.80;99.90;;;17.96;99.33;99488.50;4983557;28;20108;-87
2023/07/28 01:33:22;;;;;;;9.38;3.63;;;17.90;99.90;;;17.97;98.93;99496.28;4977974;28;20043;-87
2023/07/28 01:35:50;;;;;;;4.32;2.70;;;17.90;99.90;;;17.94;98.75;99493.34;4993091;28;20129;-87
2023/07/28 01:38:17;;;;;;;4.97;2.90;;;17.80;99.90;;;17.95;99.00;99489.56;5004752;28;20042;-87
2023/07/28 01:40:44;;;;;;;5.18;3.05;;;17.90;99.90;;;17.95;99.33;99484.97;4976828;28;20038;-87
2023/07/28 01:43:12;;;;;;;4.80;2.88;;;17.90;99.90;;;17.94;99.64;99488.75;4992926;28;20411;-87
2023/07/28 01:45:41;;;;;;;7.00;3.40;;;17.90;99.90;;;17.98;99.29;99480.91;4992587;28;20054;-87
2023/07/28 01:48:09;;;;;;;4.95;3.13;;;17.90;99.90;;;17.95;99.40;99490.38;4992806;28;20062;-87
2023/07/28 01:50:36;;;;;;;7.00;3.00;;;17.90;99.90;;;17.97;99.22;99490.09;4992903;28;20046;-87
2023/07/28 01:53:05;;;;;;;5.38;3.00;;;17.90;99.90;;;17.96;99.47;99492.00;4992788;28;20039;-87
2023/07/28 01:55:32;;;;;;;8.65;3.50;;;17.90;99.90;;;17.96;99.04;99492.00;4987035;28;20073;-87
2023/07/28 01:58:01;;;;;;;5.88;3.08;;;17.90;99.90;;;17.95;99.24;99492.25;4992806;28;20042;-87
2023/07/28 02:00:29;;;;;;;6.00;3.33;;;17.90;99.90;;;17.96;99.58;99491.19;4992666;28;20133;-87
2023/07/28 02:03:01;;;;;;;5.85;2.83;;;17.90;99.90;;;17.99;99.29;99496.00;4992875;28;20134;-87
2023/07/28 02:05:29;;;;;;;7.00;2.67;;;17.90;99.90;;;17.93;100.00;99487.16;4993202;28;20458;-87
2023/07/28 02:07:56;;;;;;;5.38;2.83;;;17.90;99.90;;;17.98;99.73;99486.31;4992836;28;20052;-87
2023/07/28 02:10:24;;;;;;;4.72;2.50;;;17.90;99.90;;;17.97;99.38;99484.69;4993578;28;20060;-87
2023/07/28 02:12:52;;;;;;;4.97;2.75;;;17.90;99.90;;;17.97;99.51;99480.09;4992961;28;20434;-87
2023/07/28 02:15:19;;;;;;;5.25;2.80;;;17.90;99.90;;;17.95;99.73;99489.56;4992653;28;20097;-87
2023/07/28 02:17:47;;;;;;;5.07;2.42;;;17.90;99.90;;;17.95;100.00;99493.06;4992595;28;20073;-87
2023/07/28 02:20:15;;;;;;;4.72;2.65;;;17.90;99.90;;;17.97;99.80;99492.78;4992126;28;20141;-87
2023/07/28 02:22:43;;;;;;;4.75;2.30;;;17.90;99.90;;;18.00;99.53;99490.31;4992364;28;20046;-87
2023/07/28 02:25:11;;;;;;;3.17;1.95;;;17.90;99.90;;;18.00;98.95;99489.50;4991963;28;20504;-87
2023/07/28 02:27:39;;;;;;;3.70;2.25;;;17.90;99.90;;;18.03;98.88;99494.34;4993348;28;20084;-87
2023/07/28 02:30:08;;;;;;;3.80;2.40;;;17.90;99.90;;;18.05;98.50;99497.56;4991976;28;20076;-87
2023/07/28 02:32:36;;;;;;;4.40;2.42;;;17.90;99.90;;;18.06;98.39;99501.09;4992116;28;20519;-87
2023/07/28 02:35:04;;;;;;;3.50;2.10;;;18.00;99.90;;;18.02;99.16;99504.34;4992273;28;20050;-87
2023/07/28 02:37:33;;;;;;;6.20;1.90;;;17.90;99.90;;;18.04;98.87;99503.25;4992456;28;20701;-87
2023/07/28 02:40:00;;;;;;;4.32;2.10;;;17.90;99.90;;;18.05;98.71;99505.66;4991868;28;20042;-87
2023/07/28 02:42:28;;;;;;;3.97;2.20;;;18.00;99.90;;;18.05;98.98;99505.66;4992250;28;20506;-87
2023/07/28 02:44:55;;;;;;;3.90;2.10;;;17.90;99.90;;;18.03;99.19;99505.16;4991820;28;20575;-87
2023/07/28 02:47:22;;;;;;;4.03;2.20;;;17.90;99.90;;;18.05;98.81;99513.75;4992082;28;20050;-87
2023/07/28 02:49:50;;;;;;;4.10;2.30;;;17.90;99.90;;;18.07;98.53;99516.19;4992017;28;20053;-87
2023/07/28 02:52:17;;;;;;;4.60;2.22;;;18.00;99.90;;;18.08;98.17;99521.28;4992092;28;20096;-87
2023/07/28 02:54:46;;;;;;;5.10;2.60;;;17.90;99.90;;;18.06;98.52;99509.97;4992216;28;20046;-87
2023/07/28 02:57:13;;;;;;;7.10;3.08;;;18.00;99.90;;;18.05;99.20;99515.66;4991735;28;20038;-86
2023/07/28 02:59:44;;;;;;;4.95;2.88;;;17.90;99.90;;;18.05;99.01;99523.75;5008061;28;20046;-87
2023/07/28 03:02:11;;;;;;;3.55;2.47;;;18.00;99.90;;;18.05;99.42;99526.44;5008084;28;20058;-87
2023/07/28 03:04:38;;;;;;;5.53;2.78;;;18.00;99.90;;;18.08;99.05;99523.19;4992846;28;20085;-87
2023/07/28 03:07:18;;;;;;;4.22;2.20;;;18.00;99.90;;;18.08;98.94;99521.28;4993298;28;20751;-87
2023/07/28 03:09:52;;;;;;;6.47;2.50;;;18.00;99.90;;;18.07;98.92;99524.28;4991526;28;20049;-87
2023/07/28 03:12:19;;;;;;;3.83;2.25;;;18.00;99.90;;;18.04;99.94;99528.34;4991855;28;20133;-87
2023/07/28 03:14:48;;;;;;;4.93;2.60;;;18.00;99.90;;;18.02;100.00;99536.72;4991866;28;20050;-87
2023/07/28 03:17:15;;;;;;;5.35;2.30;;;17.90;99.90;;;18.02;100.00;99528.63;4991485;28;20050;-87
2023/07/28 03:19:42;;;;;;;3.25;2.10;;;17.90;99.90;;;18.04;99.89;99532.94;5007551;28;20133;-87
2023/07/28 03:22:09;;;;;;;5.85;2.25;;;17.90;99.90;;;18.04;100.00;99527.53;4991809;28;20049;-87
2023/07/28 03:24:36;;;;;;;3.97;2.20;;;17.90;99.90;;;18.04;100.00;99530.22;4991916;28;20042;-87
2023/07/28 03:27:08;;;;;;;3.92;2.20;;;17.90;99.90;;;18.04;100.00;99533.72;4991795;28;20074;-87
2023/07/28 03:29:35;;;;;;;5.60;2.20;;;18.00;99.90;;;18.05;99.83;99532.63;4991483;28;20074;-87
2023/07/28 03:32:03;;;;;;;3.97;2.00;;;17.90;99.90;;;18.07;100.00;99518.88;4991678;28;20042;-87
2023/07/28 03:34:30;;;;;;;5.47;1.70;;;18.00;99.90;;;18.05;99.74;99527.25;4975290;28;20410;-87
2023/07/28 03:37:00;;;;;;;3.15;1.60;;;18.00;99.90;;;18.06;99.90;99528.88;4998961;28;20125;-86
2023/07/28 03:39:27;;;;;;;3.78;1.80;;;18.00;99.90;;;18.08;99.41;99542.06;4999342;28;20061;-86
2023/07/28 03:41:57;;;;;;;3.42;1.80;;;17.90;99.90;;;18.10;99.20;99529.88;4999384;28;20066;-86
2023/07/28 03:44:30;;;;;;;2.90;1.77;;;18.00;99.90;;;18.11;98.92;99534.22;4980814;28;20519;-88
2023/07/28 03:46:57;;;;;;;3.47;1.80;;;18.00;99.90;;;18.13;98.71;99542.03;4996798;28;20105;-88
2023/07/28 03:49:25;;;;;;;3.22;1.67;;;18.00;99.90;;;18.14;98.88;99543.63;4996704;28;20043;-87
2023/07/28 03:51:53;;;;;;;3.03;1.70;;;18.00;99.90;;;18.15;98.48;99542.53;4995971;28;20043;-88
2023/07/28 03:54:20;;;;;;;3.15;1.90;;;18.00;99.90;;;18.16;98.21;99539.56;4996980;28;20073;-89
2023/07/28 03:56:47;;;;;;;3.40;1.88;;;18.00;99.90;;;18.15;98.93;99547.94;4998749;28;20633;-88
2023/07/28 03:59:15;;;;;;;8.88;2.13;;;18.00;99.90;;;18.15;98.62;99548.72;4996679;28;20116;-88
2023/07/28 04:01:44;;;;;;;3.75;1.90;;;18.10;99.90;;;18.16;98.30;99550.38;5013600;28;20134;-88
2023/07/28 04:04:11;;;;;;;4.13;1.88;;;18.10;99.90;;;18.17;98.37;99551.16;5013809;28;20490;-89
2023/07/28 04:06:43;;;;;;;3.83;1.73;;;18.10;99.90;;;18.19;98.45;99552.47;4998221;28;20089;-88
2023/07/28 04:09:12;;;;;;;3.30;1.85;;;18.10;99.90;;;18.17;98.36;99551.16;4995916;28;20039;-88
2023/07/28 04:11:40;;;;;;;3.38;1.73;;;18.10;99.90;;;18.17;98.33;99548.47;4995247;28;20730;-89
2023/07/28 04:14:07;;;;;;;2.60;1.60;;;18.10;99.90;;;18.18;98.63;99550.88;4996177;28;20073;-89
2023/07/28 04:16:35;;;;;;;3.15;1.90;;;18.10;99.90;;;18.17;98.85;99545.78;4995016;28;20074;-88
2023/07/28 04:19:05;;;;;;;4.63;1.50;;;18.10;99.90;;;18.19;98.93;99543.59;4996211;28;20116;-89
2023/07/28 04:21:33;;;;;;;3.13;1.50;;;18.10;99.90;;;18.19;98.94;99543.59;4979024;28;20527;-89
2023/07/28 04:24:03;;;;;;;4.35;1.75;;;18.10;99.90;;;18.21;98.84;99552.22;4996907;28;20034;-88
2023/07/28 04:26:31;;;;;;;3.78;1.40;;;18.10;99.90;;;18.20;98.85;99550.59;4994912;28;20423;-89
2023/07/28 04:29:02;;;;;;;4.93;1.25;;;18.10;99.90;;;18.17;99.67;99548.47;5007054;28;20566;-88
2023/07/28 04:31:30;;;;;;;2.63;1.40;;;18.10;99.90;;;18.19;99.31;99554.38;4979033;28;20066;-88
2023/07/28 04:34:04;;;;;;;4.68;1.38;;;18.10;99.90;;;18.19;99.61;99551.69;4995093;28;20057;-87
2023/07/28 04:36:50;;;;;;;5.75;1.55;;;18.10;99.90;;;18.19;100.00;99544.38;4995834;28;20069;-88
2023/07/28 04:39:21;;;;;;;;;;;18.10;99.90;;;18.21;99.94;99550.31;4995139;28;20074;-87
2023/07/28 04:41:49;;;;;;;2.65;1.40;;;18.20;99.90;;;18.22;100.00;99553.81;5027039;28;19929;-88
2023/07/28 04:44:16;;;;;;;2.50;1.30;;;18.10;99.90;;;18.23;100.00;99558.94;4994239;28;20557;-88
2023/07/28 04:46:47;;;;;;;4.65;1.50;;;18.10;99.90;;;18.27;99.60;99567.28;4993875;28;20506;-86
2023/07/28 04:49:16;;;;;;;2.70;1.17;;;18.20;99.90;;;18.27;99.32;99559.16;4993546;28;20045;-86
2023/07/28 04:52:13;;;;;;;2.70;1.00;;;18.20;99.90;;;18.28;98.78;99563.47;4975856;28;20467;-86
2023/07/28 04:55:03;;;;;;;5.38;0.93;;;18.20;99.90;;;18.27;98.99;99561.88;5009920;28;20043;-86
2023/07/28 04:57:32;;;;;;;2.97;1.30;;;18.20;99.90;;;18.28;99.45;99560.78;5009962;28;20054;-86
2023/07/28 04:59:59;;;;;;;3.90;1.20;;;18.20;99.90;;;18.27;99.71;99557.28;5009377;28;20515;-86
2023/07/28 05:02:27;;;;;;;2.92;0.90;;;18.20;99.90;;;18.30;99.98;99566.72;4993418;28;20086;-86
2023/07/28 05:04:56;;;;;;;4.03;1.20;;;18.20;99.90;;;18.29;99.93;99559.69;5009794;28;20066;-86
2023/07/28 05:07:23;;;;;;;2.67;1.10;;;18.20;99.90;;;18.28;100.00;99560.78;4993483;28;20054;-86
2023/07/28 05:09:50;;;;;;;2.92;1.40;;;18.20;99.90;;;18.29;99.60;99565.06;4993144;28;20075;-86
2023/07/28 05:12:18;;;;;;;2.95;1.10;;;18.20;99.90;;;18.32;99.67;99567.22;4993236;28;20042;-86
2023/07/28 05:14:49;;;;;;;2.78;1.27;;;18.20;99.90;;;18.33;100.00;99568.81;4993826;28;20698;-86
2023/07/28 05:17:20;;;;;;;2.55;1.27;;;18.20;99.90;;;18.37;100.00;99566.38;4993527;28;20050;-86
2023/07/28 05:20:24;;;;;;;2.95;1.70;;;18.30;99.90;;;18.38;100.00;99565.28;4984976;28;20495;-86
2023/07/28 05:22:57;;;;;;;3.88;2.20;;;18.30;99.90;;;18.36;100.00;99579.06;4993531;28;20066;-86
2023/07/28 05:25:28;;;;;;;3.92;2.03;;;18.30;99.90;;;18.34;100.00;99572.31;4993401;28;20507;-86
2023/07/28 05:27:55;;;;;;;5.15;2.90;;;18.30;99.90;;;18.36;100.00;99570.16;4993203;28;20626;-86
2023/07/28 05:30:23;;;;;;;5.60;2.70;;;18.30;99.90;;;18.39;100.00;99572.28;4992680;28;20056;-86
2023/07/28 05:32:50;;;;;;;5.30;3.20;;;18.40;99.90;;;18.39;100.00;99577.66;4993001;28;20050;-86
2023/07/28 05:35:37;;;;;;;6.13;3.03;;;18.40;99.90;;;18.39;100.00;99575.78;4993824;28;20427;-86
2023/07/28 05:38:06;;;;;;;5.85;3.10;;;18.40;99.90;;;18.40;100.00;99574.72;4992915;28;20491;-86
2023/07/28 05:40:33;;;;;;;9.20;4.25;;;18.40;99.90;;;18.38;100.00;99584.16;4992600;28;20055;-86
2023/07/28 05:43:00;;;;;;;7.18;4.38;;;18.40;99.90;;;18.38;100.00;99579.56;4992592;28;20047;-86
2023/07/28 05:45:28;;;;;;;9.15;4.63;;;18.40;99.90;;;18.39;100.00;99578.47;4992653;28;20129;-86
2023/07/28 05:47:55;;;;;;;7.65;4.55;;;18.40;99.90;;;18.42;100.00;99591.41;4992603;28;20069;-86
2023/07/28 05:50:22;;;;;;;7.95;4.55;;;18.40;99.90;;;18.45;100.00;99585.47;4992456;28;20096;-86
2023/07/28 05:52:51;;;;;;;9.80;4.85;;;18.50;99.90;;;18.48;100.00;99595.69;4992761;28;20043;-86
2023/07/28 05:55:18;;;;;;;9.10;4.93;;;18.50;99.90;;;18.48;100.00;99600.28;4999787;28;20050;-86
2023/07/28 05:57:45;;;;;;;9.07;5.30;;;18.50;99.90;;;18.48;100.00;99606.47;4993043;28;20045;-86
2023/07/28 06:00:14;;;;;;;10.15;6.10;;;18.50;99.90;;;18.48;100.00;99609.19;4992874;28;20487;-86
2023/07/28 06:02:41;;;;;;;12.13;6.18;;;18.50;99.90;;;18.48;100.00;99608.38;4994249;28;20047;-86
2023/07/28 06:05:13;;;;;;;9.60;5.50;;;18.50;99.90;;;18.48;100.00;99605.66;4992589;28;20057;-86
2023/07/28 06:07:41;;;;;;;9.93;5.03;;;18.50;99.90;;;18.46;100.00;99608.66;4992580;28;20073;-86
2023/07/28 06:10:10;;;;;;;8.75;4.75;;;18.40;99.90;;;18.46;100.00;99621.38;4992178;28;20528;-86
2023/07/28 06:12:38;;;;;;;7.00;3.75;;;18.40;99.90;;;18.46;100.00;99607.88;4992140;28;20042;-86
2023/07/28 06:15:06;;;;;;;7.25;4.07;;;18.40;99.90;;;18.49;100.00;99615.38;4991991;28;20092;-86
2023/07/28 06:17:36;;;;;;;8.40;4.07;;;18.50;99.90;;;18.53;100.00;99619.94;4992181;28;20050;-86
2023/07/28 06:20:04;;;;;;;11.98;5.90;;;18.50;99.90;;;18.54;100.00;99623.44;4992060;28;20527;-86
2023/07/28 06:22:32;;;;;;;11.43;6.70;;;18.50;99.90;;;18.52;100.00;99622.91;4975960;28;20503;-86
2023/07/28 06:24:59;;;;;;;12.60;7.05;;;18.50;99.90;;;18.52;100.00;99629.13;4992141;28;20104;-86
2023/07/28 06:27:28;;;;;;;11.73;7.25;;;18.60;99.90;;;18.50;100.00;99636.72;4992001;28;20106;-86
2023/07/28 06:29:55;;;;;;;10.65;6.68;;;18.50;99.90;;;18.50;100.00;99634.00;4991614;28;20054;-86
2023/07/28 06:32:23;;;;;;;11.63;7.22;;;18.60;99.90;;;18.50;100.00;99636.72;4992169;28;20076;-86
2023/07/28 06:34:51;;;;;;;12.40;7.05;;;18.50;99.90;;;18.50;100.00;99638.63;4992219;28;20046;-86
2023/07/28 06:37:18;;;;;;;9.75;6.68;;;18.50;99.90;;;18.49;100.00;99635.09;4992054;28;20190;-86
2023/07/28 06:39:46;;;;;;;12.77;7.35;;;18.50;99.90;;;18.51;100.00;99642.91;4991600;28;20052;-86
2023/07/28 06:42:13;;;;;;;10.18;7.28;;;18.50;99.90;;;18.55;100.00;99643.97;4992000;28;20081;-86
2023/07/28 06:44:42;;;;;;;14.35;7.60;;;18.50;99.90;;;18.57;100.00;99641.78;4991844;28;20047;-86
2023/07/28 06:47:09;;;;;;;9.32;6.75;;;18.60;99.90;;;18.58;100.00;99643.38;4991569;28;20068;-86
2023/07/28 06:49:37;;;;;;;9.65;7.07;;;18.60;99.90;;;18.58;100.00;99651.47;4975117;28;20050;-86
2023/07/28 06:52:06;;;;;;;8.52;5.90;;;18.60;99.90;;;18.59;100.00;99644.19;4991348;28;20066;-86
2023/07/28 06:54:33;;;;;;;10.75;6.32;;;18.60;99.90;;;18.61;100.00;99647.41;4975709;28;20135;-86
2023/07/28 06:57:00;;;;;;;9.77;6.68;;;18.60;99.90;;;18.61;100.00;99647.41;4991770;28;20042;-86
2023/07/28 06:59:28;;;;;;;9.98;7.13;;;18.60;99.90;;;18.60;100.00;99657.44;4991456;28;20472;-86
2023/07/28 07:01:57;;;;;;;11.20;8.27;;;18.60;99.90;;;18.62;100.00;99663.34;4975176;28;20129;-86
2023/07/28 07:04:24;;;;;;;13.38;9.23;;;18.60;99.90;;;18.63;100.00;99658.72;4975344;28;20050;-86
2023/07/28 07:06:51;;;;;;;15.48;10.30;;;18.60;99.90;;;18.64;100.00;99660.34;4991570;28;20058;-86
2023/07/28 07:09:19;;;;;;;15.98;11.23;;;18.70;99.90;;;18.64;100.00;99653.06;4991367;28;20106;-86
2023/07/28 07:11:47;;;;;;;18.67;12.60;;;18.70;99.90;;;18.67;100.00;99662.47;4990413;28;20038;-86
2023/07/28 07:14:15;;;;;;;22.45;13.23;;;18.70;99.90;;;18.69;100.00;99658.44;4991387;28;20054;-86
2023/07/28 07:16:42;;;;;;;18.90;12.52;;;18.80;99.90;;;18.72;100.00;99671.38;4991600;28;20145;-86
2023/07/28 07:19:11;;;;;;;20.45;13.02;;;18.80;99.90;;;18.73;100.00;99666.78;4991387;28;20740;-86
2023/07/28 07:21:38;;;;;;;19.75;12.80;;;18.80;99.90;;;18.76;100.00;99671.63;4991327;28;20054;-86
2023/07/28 07:24:07;;;;;;;22.42;14.45;;;18.90;99.90;;;18.75;100.00;99672.72;4991279;28;20046;-86
2023/07/28 07:26:34;;;;;;;29.40;17.10;;;18.90;99.90;;;18.76;100.00;99679.72;4991089;28;20786;-86
2023/07/28 07:29:02;;;;;;;31.85;18.75;;;18.90;99.90;;;18.76;100.00;99679.72;4990878;28;20053;-86
2023/07/28 07:31:30;;;;;;;30.73;18.02;;;18.90;99.90;;;18.79;100.00;99679.16;4990849;28;20526;-86
2023/07/28 07:33:57;;;;;;;30.42;19.45;;;18.90;99.90;;;18.81;100.00;99676.16;4991352;28;20054;-86
2023/07/28 07:36:26;;;;;;;38.28;21.30;;;18.90;99.90;;;18.78;100.00;99681.03;4992255;28;20050;-86
2023/07/28 07:38:53;;;;;;;31.23;18.65;;;18.90;99.90;;;18.79;100.00;99681.88;4990906;28;20699;-86
2023/07/28 07:41:24;;;;;;;33.42;19.70;;;18.90;99.90;;;18.79;100.00;99681.88;4992257;28;20170;-86
2023/07/28 07:43:55;;;;;;;26.25;17.85;;;18.90;99.90;;;18.83;100.00;99685.59;4985515;28;20039;-86
2023/07/28 07:46:22;;;;;;;29.13;18.73;;;18.90;99.90;;;18.84;100.00;99689.91;4991265;28;20137;-86
2023/07/28 07:48:50;;;;;;;28.02;18.17;;;19.00;99.90;;;18.86;100.00;99686.94;4991071;28;20411;-87
2023/07/28 07:51:18;;;;;;;31.75;19.05;;;19.00;99.90;;;18.87;100.00;99689.34;4992715;28;20495;-86
2023/07/28 07:53:47;;;;;;;31.15;19.98;;;19.00;99.90;;;18.94;100.00;99687.13;4992406;28;20040;-86
2023/07/28 07:56:14;;;;;;;34.67;21.45;;;19.10;99.90;;;18.99;100.00;99689.75;4991239;28;20042;-86
2023/07/28 07:58:41;;;;;;;31.10;20.38;;;19.10;99.90;;;19.01;100.00;99689.47;4991166;28;20438;-85
2023/07/28 08:01:09;;;;;;;31.50;18.58;;;19.10;99.90;;;19.04;100.00;99686.22;4992637;28;20141;-85
2023/07/28 08:03:37;;;;;;;26.40;15.57;;;19.20;99.90;;;19.08;100.00;99695.34;4992479;28;20068;-85
2023/07/28 08:06:05;;;;;;;18.30;12.05;;;19.20;99.90;;;19.06;100.00;99688.63;4993640;28;20104;-85
2023/07/28 08:08:32;;;;;;;23.48;10.80;;;19.20;99.90;;;19.07;100.00;99693.72;4991167;28;20133;-86
2023/07/28 08:11:02;;;;;;;17.23;8.93;;;19.20;99.90;;;19.13;100.00;99700.72;4990980;28;20052;-86
2023/07/28 08:13:29;;;;;;;19.17;8.88;;;19.30;99.90;;;19.15;100.00;99687.69;4990978;28;20042;-86
2023/07/28 08:15:56;;;;;;;14.13;9.15;;;19.30;99.90;;;19.14;100.00;99696.91;4974278;28;20043;-86
2023/07/28 08:18:24;;;;;;;18.35;9.98;;;19.30;99.90;;;19.17;100.00;99698.22;4990709;28;20105;-86
2023/07/28 08:20:51;;;;;;;17.85;10.27;;;19.30;99.90;;;19.16;100.00;99700.13;4991037;28;20080;-86
2023/07/28 08:23:18;;;;;;;15.95;9.82;;;19.30;99.90;;;19.17;100.00;99698.22;4995087;28;20070;-86
2023/07/28 08:25:46;;;;;;;17.52;9.55;;;19.30;99.90;;;19.18;100.00;99706.06;4994283;28;20137;-86
2023/07/28 08:28:15;;;;;;;14.20;8.32;;;19.40;99.90;;;19.20;100.00;99706.56;4995485;28;20153;-86
2023/07/28 08:30:42;;;;;;;12.50;7.40;;;19.40;99.90;;;19.22;100.00;99706.28;4994391;28;20149;-86
2023/07/28 08:33:09;;;;;;;10.70;7.15;;;19.40;99.90;;;19.22;100.00;99712.47;4994235;28;20059;-86
2023/07/28 08:35:37;;;;;;;12.45;7.57;;;19.40;99.90;;;19.22;100.00;99717.09;4994341;28;20430;-86
2023/07/28 08:38:04;;;;;;;10.77;6.68;;;19.40;99.90;;;19.21;100.00;99712.78;4977822;28;20047;-86
2023/07/28 08:40:31;;;;;;;11.82;7.35;;;19.40;99.90;;;19.23;100.00;99719.53;4994989;28;20038;-86
2023/07/28 08:42:59;;;;;;;15.80;7.20;;;19.40;99.90;;;19.24;100.00;99725.72;4994162;28;20439;-86
2023/07/28 08:45:28;;;;;;;10.82;5.55;;;19.40;99.90;;;19.25;100.00;99720.03;4994839;28;20089;-86
2023/07/28 08:47:55;;;;;;;9.93;5.13;;;19.40;99.90;;;19.24;100.00;99723.03;4993832;28;20475;-86
2023/07/28 08:50:23;;;;;;;5.63;3.47;;;19.40;99.90;;;19.26;100.00;99726.25;4993330;28;20038;-86
2023/07/28 08:52:51;;;;;;;6.57;3.22;;;19.40;99.90;;;19.32;100.00;99732.38;4993828;28;20136;-86
2023/07/28 08:55:18;;;;;;;7.20;2.50;;;19.50;99.90;;;19.35;100.00;99734.53;4993786;28;20400;-86
2023/07/28 08:57:45;;;;;;;7.25;2.92;;;19.50;99.90;;;19.40;100.00;99732.56;4993667;28;20153;-86
2023/07/28 09:00:14;;;;;;;4.45;2.22;;;19.60;99.90;;;19.47;100.00;99740.34;4993649;28;20141;-87
2023/07/28 09:02:43;;;;;;;3.17;1.83;;;19.70;99.90;;;19.46;100.00;99738.72;4993804;28;20060;-87
2023/07/28 09:05:20;;;;;;;5.85;2.20;;;19.70;99.90;;;19.46;100.00;99734.13;4993924;28;20058;-87
2023/07/28 09:07:48;;;;;;;3.88;1.80;;;19.70;99.90;;;19.50;100.00;99740.56;4993861;28;20046;-87
2023/07/28 09:10:15;;;;;;;3.90;1.70;;;19.70;99.90;;;19.55;100.00;99739.72;4993638;28;20056;-86
2023/07/28 09:12:49;;;;;;;4.60;2.05;;;19.80;99.90;;;19.72;100.00;99731.16;4993671;28;20097;-87
2023/07/28 09:15:17;;;;;;;5.97;2.33;;;20.00;99.90;;;19.73;100.00;99738.97;4993414;28;20043;-87
2023/07/28 09:17:47;;;;;;;4.53;2.20;;;20.00;99.90;;;19.82;100.00;99739.16;4993548;28;20047;-87
2023/07/28 09:20:16;;;;;;;3.72;2.28;;;20.10;99.90;;;19.90;100.00;99743.09;4992906;28;20085;-87
2023/07/28 09:22:44;;;;;;;4.00;2.10;;;20.20;99.90;;;19.95;100.00;99741.13;4993126;28;20415;-86
2023/07/28 09:25:17;;;;;;;4.78;2.17;;;20.30;99.90;;;19.90;100.00;99735.78;4994113;28;20053;-87
2023/07/28 09:27:51;;;;;;;4.55;2.28;;;20.30;99.90;;;19.92;100.00;99735.50;5010401;23;20877;-82
2023/07/28 09:30:19;;;;;;;5.60;2.40;;;20.20;99.90;;;19.91;100.00;99736.56;4995641;28;20567;-83
2023/07/28 09:32:50;;;;;;;5.18;2.67;;;20.20;99.90;;;20.01;100.00;99742.69;4994542;28;20050;-83
2023/07/28 09:35:18;;;;;;;3.83;2.20;;;20.40;99.90;;;20.04;100.00;99742.09;4993843;28;20116;-83
2023/07/28 09:37:48;;;;;;;4.68;3.05;;;20.40;99.90;;;20.05;100.00;99740.97;4992977;28;20449;-83
2023/07/28 09:40:18;;;;;;;6.40;2.60;;;20.40;99.90;;;20.16;100.00;99736.25;4993801;28;20494;-83
2023/07/28 09:42:49;;;;;;;4.60;2.75;;;20.50;99.90;;;20.16;100.00;99743.56;4994180;28;20129;-83
2023/07/28 09:45:18;;;;;;;8.65;3.20;;;20.50;99.90;;;20.16;100.00;99735.44;4992769;28;20137;-82
2023/07/28 09:47:48;;;;;;;4.88;3.30;;;20.50;99.90;;;20.32;100.00;99734.91;4994827;28;20047;-84
2023/07/28 09:50:19;;;;;;;6.70;4.22;;;20.70;99.90;;;20.46;100.00;99728.75;4993738;28;20072;-84
2023/07/28 09:52:47;;;;;;;;;;;20.90;99.90;;;20.42;100.00;99739.38;4994133;28;20567;-84
2023/07/28 09:55:16;;;;;;;8.25;5.82;;;20.80;99.90;;;20.43;100.00;99740.97;4994690;28;20024;-83
2023/07/28 09:57:48;;;;;;;10.02;7.07;;;20.80;99.90;;;20.39;100.00;99744.56;4992684;28;20050;-83
2023/07/28 10:00:18;;;;;;;10.98;6.95;;;20.70;99.90;;;20.35;100.00;99749.78;4991795;28;20070;-83
2023/07/28 10:02:47;;;;;;;11.43;6.50;;;20.60;99.90;;;20.28;100.00;99749.34;4993871;28;20069;-83
2023/07/28 10:05:17;;;;;;;6.85;4.97;;;20.60;99.90;;;20.22;100.00;99755.94;4994357;28;20515;-84
2023/07/28 10:07:46;;;;;;;8.32;4.57;;;20.50;99.90;;;20.21;100.00;99760.53;4994070;28;20844;-84
2023/07/28 10:10:16;;;;;;;7.70;4.45;;;20.50;99.90;;;20.22;100.00;99761.34;4992569;28;20070;-83
2023/07/28 10:12:47;;;;;;;10.38;6.75;;;20.50;99.90;;;20.25;100.00;99764.28;4992423;28;20056;-84
2023/07/28 10:15:16;;;;;;;;;;;20.60;99.90;;;20.22;100.00;99761.34;4992713;28;20496;-84
2023/07/28 10:17:49;;;;;;;10.63;6.63;;;20.60;99.90;;;20.15;100.00;99761.69;4994195;28;19933;-84
2023/07/28 10:20:34;;;;;;;10.05;6.55;;;20.50;99.90;;;20.13;100.00;99772.03;4991296;28;20116;-83